createdAt,value
2023-01-09T06:13:02.880Z,53.20
2023-01-09T06:15:29.959Z,64.00
2023-01-09T06:17:57.042Z,92.75
2023-01-09T06:20:24.115Z,73.20
2023-01-09T06:22:52.345Z,96.85
2023-01-09T06:25:19.568Z,84.53
2023-01-09T06:27:52.986Z,101.35
2023-01-09T06:30:20.496Z,88.72
2023-01-09T06:32:51.689Z,90.70
2023-01-09T06:35:20.784Z,96.93
2023-01-09T06:37:48.851Z,104.07
2023-01-09T06:40:16.999Z,77.75
2023-01-09T06:42:50.621Z,81.82
2023-01-09T06:45:18.270Z,72.90
2023-01-09T06:47:45.678Z,71.78
2023-01-09T06:50:13.844Z,71.83
2023-01-09T06:52:40.915Z,58.67
2023-01-09T06:55:10.217Z,68.03
2023-01-09T06:57:37.345Z,56.75
2023-01-09T07:00:05.374Z,58.47
2023-01-09T07:02:32.455Z,67.10
2023-01-09T07:04:59.903Z,66.35
2023-01-09T07:07:27.157Z,65.22
2023-01-09T07:09:54.321Z,70.65
2023-01-09T07:12:22.329Z,52.53
2023-01-09T07:14:49.933Z,55.80
2023-01-09T07:17:17.085Z,61.78
2023-01-09T07:19:44.161Z,72.50
2023-01-09T07:22:13.071Z,66.78
2023-01-09T07:24:40.260Z,67.10
2023-01-09T07:27:07.567Z,54.30
2023-01-09T07:29:34.638Z,53.20
2023-01-09T07:32:02.131Z,44.15
2023-01-09T07:34:29.236Z,52.08
2023-01-09T07:36:56.313Z,61.95
2023-01-09T07:39:23.402Z,49.67
2023-01-09T07:41:50.409Z,63.17
2023-01-09T07:44:17.569Z,61.22
2023-01-09T07:46:44.802Z,61.80
2023-01-09T07:49:13.149Z,71.47
2023-01-09T07:51:43.470Z,55.73
2023-01-09T07:54:11.702Z,62.80
2023-01-09T07:56:39.664Z,62.47
2023-01-09T07:59:06.717Z,49.30
2023-01-09T08:01:33.878Z,57.30
2023-01-09T08:04:00.974Z,65.77
2023-01-09T08:06:28.219Z,56.95
2023-01-09T08:08:55.280Z,59.13
2023-01-09T08:11:22.350Z,51.75
2023-01-09T08:13:49.488Z,56.40
2023-01-09T08:16:16.682Z,57.67
2023-01-09T08:18:44.093Z,65.40
2023-01-09T08:21:14.519Z,46.80
2023-01-09T08:23:41.727Z,65.25
2023-01-09T08:26:08.957Z,59.13
2023-01-09T08:28:36.027Z,66.50
2023-01-09T08:31:03.293Z,64.55
2023-01-09T08:33:30.397Z,53.35
2023-01-09T08:35:57.533Z,55.60
2023-01-09T08:38:24.648Z,54.30
2023-01-09T08:40:51.770Z,52.87
2023-01-09T08:43:36.938Z,53.58
2023-01-09T08:46:22.248Z,58.85
2023-01-09T08:48:49.399Z,46.83
2023-01-09T08:51:16.451Z,59.10
2023-01-09T08:53:43.499Z,47.57
2023-01-09T08:56:10.595Z,46.72
2023-01-09T08:58:37.677Z,51.03
2023-01-09T09:01:22.513Z,52.63
2023-01-09T09:03:49.499Z,58.00
2023-01-09T09:06:16.622Z,60.63
2023-01-09T09:08:44.116Z,52.17
2023-01-09T09:11:11.877Z,49.45
2023-01-09T09:13:38.947Z,52.30
2023-01-09T09:16:06.490Z,48.03
2023-01-09T09:18:33.590Z,50.80
2023-01-09T09:21:00.959Z,41.35
2023-01-09T09:23:28.212Z,48.55
2023-01-09T09:25:55.317Z,47.78
2023-01-09T09:28:22.364Z,58.13
2023-01-09T09:30:49.465Z,48.03
2023-01-09T09:33:16.521Z,51.45
2023-01-09T09:35:43.573Z,45.97
2023-01-09T09:38:11.270Z,48.70
2023-01-09T09:40:53.284Z,42.28
2023-01-09T09:43:51.860Z,56.90
2023-01-09T09:46:40.300Z,36.38
2023-01-09T09:49:18.745Z,56.65
2023-01-09T09:52:06.168Z,44.72
2023-01-09T09:54:35.430Z,52.72
2023-01-09T09:57:11.343Z,45.30
2023-01-09T09:59:40.771Z,42.53
2023-01-09T10:02:29.380Z,42.38
2023-01-09T10:05:13.010Z,39.47
2023-01-09T10:07:48.486Z,44.25
2023-01-09T10:17:03.687Z,78.13
2023-01-09T10:19:59.135Z,50.28
2023-01-09T10:22:45.422Z,51.75
2023-01-09T10:25:30.995Z,47.08
2023-01-09T10:28:13.421Z,50.03
2023-01-09T10:31:12.731Z,49.75
2023-01-09T10:34:03.995Z,47.38
2023-01-09T10:37:00.072Z,52.50
2023-01-09T10:39:37.540Z,44.83
2023-01-09T10:42:22.661Z,43.90
2023-01-09T10:45:16.057Z,54.75
2023-01-09T10:47:44.519Z,44.13
2023-01-09T10:50:22.704Z,47.60
2023-01-09T10:52:51.885Z,46.33
2023-01-09T14:18:26.777Z,40.15
2023-01-09T14:21:09.396Z,60.15
2023-01-09T14:23:52.893Z,55.35
2023-01-09T14:26:41.928Z,55.97
2023-01-09T14:29:41.793Z,56.17
2023-01-09T14:32:25.129Z,56.40
2023-01-09T14:35:00.249Z,56.55
2023-01-09T14:37:30.396Z,55.35
2023-01-09T14:39:58.862Z,46.13
2023-01-09T14:42:29.495Z,44.15
2023-01-09T14:45:07.375Z,35.55
2023-01-09T14:47:49.536Z,42.20
2023-01-09T14:50:25.709Z,36.88
2023-01-09T14:53:17.315Z,42.10
2023-01-09T14:56:06.800Z,53.20
2023-01-09T14:58:36.502Z,50.88
2023-01-09T15:01:19.175Z,46.63
2023-01-09T15:04:19.649Z,51.30
2023-01-09T15:06:46.719Z,36.23
2023-01-09T15:09:37.212Z,44.92
2023-01-09T15:12:10.168Z,44.95
2023-01-09T15:14:40.901Z,41.58
2023-01-09T15:17:23.141Z,47.90
2023-01-09T15:19:50.669Z,43.23
2023-01-09T15:22:31.356Z,39.42
2023-01-09T15:24:59.702Z,42.20
2023-01-09T15:27:26.931Z,47.95
2023-01-09T15:29:54.039Z,32.92
2023-01-09T15:32:30.035Z,43.10
2023-01-09T15:34:57.980Z,38.90
2023-01-09T15:37:32.994Z,47.00
2023-01-09T15:40:02.611Z,40.53
2023-01-09T15:42:51.836Z,36.20
2023-01-09T15:45:28.824Z,53.27
2023-01-09T15:48:16.378Z,43.65
2023-01-09T15:50:45.228Z,36.75
2023-01-09T15:53:18.134Z,36.45
2023-01-09T15:55:47.003Z,31.80
2023-01-09T15:58:38.195Z,40.87
2023-01-09T16:01:25.064Z,33.28
2023-01-09T16:03:54.650Z,35.67
2023-01-09T16:06:29.299Z,36.15
2023-01-09T16:09:01.596Z,37.05
2023-01-09T16:11:38.269Z,30.93
2023-01-09T16:14:25.500Z,28.70
2023-01-09T16:16:54.222Z,32.17
2023-01-09T16:19:49.615Z,27.02
2023-01-09T16:22:31.801Z,32.50
2023-01-09T16:25:29.452Z,37.97
2023-01-09T16:28:27.163Z,41.60
2023-01-09T16:31:09.915Z,28.20
2023-01-09T16:33:49.965Z,41.10
2023-01-09T16:36:17.555Z,35.60
2023-01-09T16:38:45.491Z,33.50
2023-01-09T16:41:40.471Z,42.00
2023-01-09T16:44:09.848Z,33.55
2023-01-09T16:46:44.655Z,39.45
2023-01-09T16:49:24.093Z,47.38
2023-01-09T16:51:51.693Z,27.67
2023-01-09T16:54:21.700Z,29.65
2023-01-09T16:56:52.585Z,35.60
2023-01-09T16:59:25.221Z,29.95
2023-01-09T17:01:53.096Z,38.17
2023-01-09T17:04:21.345Z,36.80
2023-01-09T17:06:49.630Z,28.95
2023-01-09T17:09:19.428Z,36.83
2023-01-09T17:11:47.488Z,29.73
2023-01-09T17:14:16.761Z,26.08
2023-01-09T17:16:46.153Z,31.30
2023-01-09T17:19:19.401Z,31.17
2023-01-09T17:21:46.927Z,33.80
2023-01-09T17:24:32.564Z,29.23
2023-01-09T17:27:21.257Z,36.40
2023-01-09T17:29:48.605Z,41.03
2023-01-09T17:32:19.927Z,37.00
2023-01-09T17:34:47.254Z,34.80
2023-01-09T17:37:19.800Z,37.08
2023-01-09T17:39:46.954Z,35.45
2023-01-09T17:42:14.141Z,30.43
2023-01-09T17:44:41.577Z,36.88
2023-01-09T17:47:16.345Z,37.78
2023-01-09T17:49:44.053Z,32.13
2023-01-09T17:52:11.633Z,31.33
2023-01-09T17:54:41.415Z,36.10
2023-01-09T17:57:16.443Z,35.28
2023-01-09T17:59:45.630Z,37.28
2023-01-09T18:02:17.981Z,42.88
2023-01-09T18:04:46.221Z,42.13
2023-01-09T18:07:18.713Z,28.87
2023-01-09T18:09:46.168Z,27.27
2023-01-09T18:12:14.111Z,36.33
2023-01-09T18:14:42.459Z,39.42
2023-01-09T18:17:19.142Z,44.90
2023-01-09T18:19:46.624Z,39.50
2023-01-09T18:22:13.819Z,42.55
2023-01-09T18:24:41.604Z,31.40
2023-01-09T18:27:10.552Z,39.65
2023-01-09T18:29:37.741Z,36.38
2023-01-09T18:32:05.028Z,39.93
2023-01-09T18:34:32.044Z,22.25
2023-01-09T18:36:59.103Z,33.80
2023-01-09T18:39:26.262Z,28.08
2023-01-09T18:41:53.384Z,36.17
2023-01-09T18:44:22.223Z,33.07
2023-01-09T18:46:49.285Z,34.78
2023-01-09T18:49:16.453Z,40.00
2023-01-09T18:51:44.089Z,28.65
2023-01-09T18:54:14.308Z,44.65
2023-01-09T18:56:41.317Z,38.67
2023-01-09T18:59:09.684Z,42.50
2023-01-09T19:01:36.885Z,39.95
2023-01-09T19:04:04.600Z,38.55
2023-01-09T19:06:32.301Z,34.85
2023-01-09T19:08:59.925Z,43.97
2023-01-09T19:11:27.273Z,49.17
2023-01-09T19:13:54.909Z,37.03
2023-01-09T19:16:24.632Z,39.78
2023-01-09T19:18:52.918Z,42.42
2023-01-09T19:21:22.549Z,31.53
2023-01-09T19:23:50.090Z,44.75
2023-01-09T19:26:26.294Z,41.22
2023-01-09T19:28:58.091Z,39.42
2023-01-09T19:31:28.720Z,36.13
2023-01-09T19:33:56.887Z,33.03
2023-01-09T19:36:24.406Z,39.03
2023-01-09T19:38:57.225Z,30.65
2023-01-09T19:41:24.826Z,35.60
2023-01-09T19:43:51.924Z,35.53
2023-01-09T19:46:22.023Z,42.10
2023-01-09T19:48:51.571Z,35.45
2023-01-09T19:51:20.986Z,27.77
2023-01-09T19:53:53.759Z,36.35
2023-01-09T19:56:22.830Z,30.73
2023-01-09T19:58:52.519Z,34.20
2023-01-09T20:01:23.241Z,42.20
2023-01-09T20:03:51.414Z,40.78
2023-01-09T20:06:24.355Z,39.72
2023-01-09T20:08:56.753Z,32.80
2023-01-09T20:11:25.342Z,36.23
2023-01-09T20:13:52.886Z,26.35
2023-01-09T20:16:22.707Z,26.63
2023-01-09T20:18:49.986Z,41.10
2023-01-09T20:21:18.869Z,34.90
2023-01-09T20:23:45.871Z,26.37
2023-01-09T20:26:13.034Z,32.03
2023-01-09T20:28:40.104Z,31.40
2023-01-09T20:31:14.244Z,32.92
2023-01-09T20:33:41.356Z,33.50
2023-01-09T20:36:09.703Z,38.57
2023-01-09T20:38:38.177Z,33.15
2023-01-09T20:41:24.216Z,36.28
2023-01-09T20:43:56.790Z,39.60
2023-01-09T20:46:26.554Z,39.13
2023-01-09T20:48:56.626Z,34.47
2023-01-09T20:51:24.247Z,37.33
2023-01-09T20:53:55.839Z,29.92
2023-01-09T20:56:27.816Z,31.05
2023-01-09T20:58:55.042Z,30.42
2023-01-09T21:01:23.008Z,36.33
2023-01-09T21:03:51.522Z,30.00
2023-01-09T21:06:20.159Z,27.00
2023-01-09T21:08:47.594Z,33.38
2023-01-09T21:11:15.529Z,33.85
2023-01-09T21:13:42.787Z,26.20
2023-01-09T21:16:15.768Z,36.03
2023-01-09T21:18:43.903Z,33.65
2023-01-09T21:21:14.126Z,35.47
2023-01-09T21:23:49.213Z,31.30
2023-01-09T21:26:17.055Z,29.70
2023-01-09T21:28:48.967Z,36.03
2023-01-09T21:31:19.621Z,23.92
2023-01-09T21:33:47.717Z,25.17
2023-01-09T21:36:14.998Z,32.42
2023-01-09T21:38:42.025Z,30.80
2023-01-09T21:41:27.924Z,28.48
2023-01-09T21:44:13.378Z,30.13
2023-01-09T21:46:52.533Z,23.40
2023-01-09T21:49:20.422Z,28.48
2023-01-09T21:51:47.731Z,28.93
2023-01-09T21:54:15.150Z,20.50
2023-01-09T21:56:42.250Z,26.45
2023-01-09T21:59:10.275Z,27.98
2023-01-09T22:01:37.530Z,29.15
2023-01-09T22:04:04.723Z,30.33
2023-01-09T22:06:32.058Z,25.88
2023-01-09T22:08:59.421Z,24.40
2023-01-09T22:11:26.539Z,28.15
2023-01-09T22:13:54.299Z,25.90
2023-01-09T22:16:21.420Z,25.83
2023-01-09T22:18:50.240Z,23.98
2023-01-09T22:21:18.063Z,30.15
2023-01-09T22:23:45.252Z,24.33
2023-01-09T22:26:14.180Z,26.65
2023-01-09T22:28:42.066Z,28.33
2023-01-09T22:31:16.166Z,28.05
2023-01-09T22:33:43.266Z,29.63
2023-01-09T22:36:12.473Z,31.42
2023-01-09T22:38:39.444Z,28.20
2023-01-09T22:41:06.532Z,30.03
2023-01-09T22:43:33.545Z,27.85
2023-01-09T22:46:01.796Z,29.88
2023-01-09T22:48:34.668Z,18.63
2023-01-09T22:51:02.964Z,31.17
2023-01-09T22:53:31.412Z,26.40
2023-01-09T22:55:59.933Z,27.05
2023-01-09T22:58:28.687Z,26.05
2023-01-09T23:00:56.031Z,26.00
2023-01-09T23:03:23.313Z,28.60
2023-01-09T23:05:59.606Z,25.43
2023-01-09T23:08:26.550Z,21.55
2023-01-09T23:10:53.679Z,18.25
2023-01-09T23:13:20.600Z,23.65
2023-01-09T23:15:47.634Z,23.00
2023-01-09T23:18:14.709Z,21.17
2023-01-09T23:20:41.820Z,24.98
2023-01-09T23:23:08.809Z,24.33
2023-01-09T23:25:35.774Z,24.75
2023-01-09T23:28:02.814Z,22.67
2023-01-09T23:30:29.840Z,20.50
2023-01-09T23:32:57.268Z,24.52
2023-01-09T23:35:24.293Z,21.92
2023-01-09T23:37:51.237Z,21.20
2023-01-09T23:40:18.375Z,19.80
2023-01-09T23:43:04.283Z,21.00
2023-01-09T23:45:31.244Z,21.20
2023-01-09T23:47:58.271Z,26.67
2023-01-09T23:50:25.354Z,20.15
2023-01-09T23:52:52.283Z,19.98
2023-01-09T23:55:19.348Z,19.57
2023-01-09T23:57:46.551Z,21.60
